createdAt,value
2023-02-17T00:00:03.000Z,280.09
2023-02-17T00:01:29.000Z,280.09
2023-02-17T00:03:36.000Z,280.02
2023-02-17T00:06:27.000Z,280.02
2023-02-17T00:07:54.000Z,280.02
2023-02-17T00:10:00.000Z,279.96
2023-02-17T00:11:26.000Z,279.96
2023-02-17T00:13:32.000Z,279.9
2023-02-17T00:14:59.000Z,279.9
2023-02-17T00:17:05.000Z,279.9
2023-02-17T00:18:32.000Z,279.84
2023-02-17T00:20:38.000Z,279.84
2023-02-17T00:22:04.000Z,279.84
2023-02-17T00:24:10.000Z,279.84
2023-02-17T00:25:37.000Z,279.84
2023-02-17T00:27:43.000Z,279.77
2023-02-17T00:29:09.000Z,279.77
2023-02-17T00:31:15.000Z,279.77
2023-02-17T00:32:42.000Z,279.77
2023-02-17T00:34:48.000Z,279.77
2023-02-17T00:36:15.000Z,279.71
2023-02-17T00:38:21.000Z,279.77
2023-02-17T00:39:47.000Z,279.77
2023-02-17T00:41:53.000Z,279.77
2023-02-17T00:44:45.000Z,279.77
2023-02-17T00:46:11.000Z,279.77
2023-02-17T00:48:18.000Z,279.77
2023-02-17T00:49:44.000Z,279.77
2023-02-17T00:51:50.000Z,279.77
2023-02-17T00:53:17.000Z,279.77
2023-02-17T00:55:23.000Z,279.71
2023-02-17T00:56:49.000Z,279.71
2023-02-17T00:58:55.000Z,279.71
2023-02-17T01:00:22.000Z,279.71
2023-02-17T01:02:28.000Z,279.65
2023-02-17T01:03:55.000Z,279.71
2023-02-17T01:06:01.000Z,279.65
2023-02-17T01:07:28.000Z,279.71
2023-02-17T01:09:34.000Z,279.65
2023-02-17T01:11:00.000Z,279.65
2023-02-17T01:13:06.000Z,279.65
2023-02-17T01:14:33.000Z,279.65
2023-02-17T01:16:39.000Z,279.65
2023-02-17T01:18:05.000Z,279.65
2023-02-17T01:20:11.000Z,279.65
2023-02-17T01:23:03.000Z,279.65
2023-02-17T01:24:29.000Z,279.65
2023-02-17T01:26:35.000Z,279.65
2023-02-17T01:28:02.000Z,279.65
2023-02-17T01:30:08.000Z,279.65
2023-02-17T01:31:34.000Z,279.71
2023-02-17T01:33:41.000Z,279.65
2023-02-17T01:35:07.000Z,279.65
2023-02-17T01:37:13.000Z,279.71
2023-02-17T01:38:40.000Z,279.71
2023-02-17T01:40:46.000Z,279.71
2023-02-17T01:42:12.000Z,279.71
2023-02-17T01:44:19.000Z,279.71
2023-02-17T01:45:45.000Z,279.71
2023-02-17T01:47:51.000Z,279.71
2023-02-17T01:49:18.000Z,279.71
2023-02-17T01:51:24.000Z,279.71
2023-02-17T01:52:50.000Z,279.71
2023-02-17T01:54:56.000Z,279.71
2023-02-17T01:56:23.000Z,279.71
2023-02-17T01:58:29.000Z,279.71
2023-02-17T02:01:20.000Z,279.65
2023-02-17T02:02:46.000Z,279.71
2023-02-17T02:04:53.000Z,279.71
2023-02-17T02:06:19.000Z,279.77
2023-02-17T02:08:26.000Z,279.77
2023-02-17T02:09:52.000Z,279.77
2023-02-17T02:11:58.000Z,279.77
2023-02-17T02:13:25.000Z,279.77
2023-02-17T02:15:31.000Z,279.77
2023-02-17T02:16:57.000Z,279.77
2023-02-17T02:19:03.000Z,279.84
2023-02-17T02:20:30.000Z,279.84
2023-02-17T02:22:36.000Z,279.84
2023-02-17T02:24:02.000Z,279.84
2023-02-17T02:26:09.000Z,279.84
2023-02-17T02:27:35.000Z,279.84
2023-02-17T02:29:41.000Z,279.9
2023-02-17T02:31:08.000Z,279.84
2023-02-17T02:33:14.000Z,279.84
2023-02-17T02:34:41.000Z,279.84
2023-02-17T02:36:47.000Z,279.84
2023-02-17T02:39:38.000Z,279.9
2023-02-17T02:41:04.000Z,279.9
2023-02-17T02:43:10.000Z,279.9
2023-02-17T02:44:37.000Z,279.9
2023-02-17T02:46:43.000Z,279.9
2023-02-17T02:48:10.000Z,279.9
2023-02-17T02:50:16.000Z,279.9
2023-02-17T02:51:42.000Z,279.9
2023-02-17T02:53:48.000Z,279.9
2023-02-17T02:55:15.000Z,279.96
2023-02-17T02:57:21.000Z,279.9
2023-02-17T02:58:48.000Z,279.9
2023-02-17T03:00:54.000Z,279.9
2023-02-17T03:02:20.000Z,279.96
2023-02-17T03:04:26.000Z,279.96
2023-02-17T03:05:53.000Z,280.02
2023-02-17T03:07:59.000Z,279.96
2023-02-17T03:09:25.000Z,279.9
2023-02-17T03:11:32.000Z,279.96
2023-02-17T03:12:58.000Z,279.96
2023-02-17T03:15:04.000Z,279.96
2023-02-17T03:17:55.000Z,279.9
2023-02-17T03:19:22.000Z,279.96
2023-02-17T03:21:28.000Z,279.96
2023-02-17T03:22:54.000Z,279.96
2023-02-17T03:25:00.000Z,279.96
2023-02-17T03:26:27.000Z,279.96
2023-02-17T03:28:33.000Z,279.84
2023-02-17T03:30:00.000Z,279.84
2023-02-17T03:32:06.000Z,279.9
2023-02-17T03:33:33.000Z,279.96
2023-02-17T03:35:39.000Z,279.9
2023-02-17T03:37:05.000Z,279.9
2023-02-17T03:39:11.000Z,279.96
2023-02-17T03:40:38.000Z,279.96
2023-02-17T03:42:44.000Z,279.96
2023-02-17T03:44:10.000Z,280.02
2023-02-17T03:46:17.000Z,279.96
2023-02-17T03:47:43.000Z,280.02
2023-02-17T03:49:49.000Z,280.09
2023-02-17T03:51:16.000Z,280.09
2023-02-17T03:53:22.000Z,280.09
2023-02-17T03:56:13.000Z,280.09
2023-02-17T03:57:40.000Z,280.15
2023-02-17T03:59:46.000Z,280.15
2023-02-17T04:01:12.000Z,280.15
2023-02-17T04:03:18.000Z,280.15
2023-02-17T04:04:45.000Z,280.15
2023-02-17T04:06:51.000Z,280.15
2023-02-17T04:08:17.000Z,280.15
2023-02-17T04:10:24.000Z,280.15
2023-02-17T04:11:50.000Z,280.21
2023-02-17T04:13:56.000Z,280.21
2023-02-17T04:15:23.000Z,280.21
2023-02-17T04:17:29.000Z,280.27
2023-02-17T04:18:55.000Z,280.27
2023-02-17T04:21:01.000Z,280.27
2023-02-17T04:22:28.000Z,280.27
2023-02-17T04:24:34.000Z,280.27
2023-02-17T04:26:00.000Z,280.21
2023-02-17T04:28:07.000Z,280.27
2023-02-17T04:29:33.000Z,280.27
2023-02-17T04:31:40.000Z,280.27
2023-02-17T04:34:31.000Z,280.21
2023-02-17T04:35:57.000Z,280.27
2023-02-17T04:38:03.000Z,280.21
2023-02-17T04:39:30.000Z,280.27
2023-02-17T04:41:36.000Z,280.27
2023-02-17T04:43:02.000Z,280.21
2023-02-17T04:45:09.000Z,280.21
2023-02-17T04:46:35.000Z,280.27
2023-02-17T04:48:41.000Z,280.27
2023-02-17T04:50:08.000Z,280.21
2023-02-17T04:52:14.000Z,280.21
2023-02-17T04:53:40.000Z,280.21
2023-02-17T04:55:47.000Z,280.21
2023-02-17T04:57:13.000Z,280.21
2023-02-17T04:59:19.000Z,280.21
2023-02-17T05:00:48.000Z,280.21
2023-02-17T05:02:54.000Z,280.21
2023-02-17T05:04:20.000Z,280.21
2023-02-17T05:06:26.000Z,280.21
2023-02-17T05:07:53.000Z,280.34
2023-02-17T05:09:59.000Z,280.34
2023-02-17T05:12:50.000Z,280.34
2023-02-17T05:14:17.000Z,280.4
2023-02-17T05:16:23.000Z,280.4
2023-02-17T05:17:49.000Z,280.46
2023-02-17T05:19:55.000Z,280.46
2023-02-17T05:21:22.000Z,280.46
2023-02-17T05:23:28.000Z,280.46
2023-02-17T05:24:54.000Z,280.52
2023-02-17T05:27:00.000Z,280.46
2023-02-17T05:28:27.000Z,280.52
2023-02-17T05:30:33.000Z,280.4
2023-02-17T05:32:00.000Z,280.46
2023-02-17T05:34:06.000Z,280.46
2023-02-17T05:35:32.000Z,280.46
2023-02-17T05:37:39.000Z,280.52
2023-02-17T05:39:05.000Z,280.59
2023-02-17T05:41:11.000Z,280.52
2023-02-17T05:42:38.000Z,280.52
2023-02-17T05:44:44.000Z,280.52
2023-02-17T05:46:10.000Z,280.59
2023-02-17T05:48:17.000Z,280.65
2023-02-17T05:51:07.000Z,280.59
2023-02-17T05:52:34.000Z,280.59
2023-02-17T05:54:40.000Z,280.52
2023-02-17T05:56:07.000Z,280.52
2023-02-17T05:58:13.000Z,280.52
2023-02-17T05:59:40.000Z,280.59
2023-02-17T06:01:46.000Z,280.59
2023-02-17T06:03:12.000Z,280.65
2023-02-17T06:05:18.000Z,280.65
2023-02-17T06:06:45.000Z,280.71
2023-02-17T06:08:51.000Z,280.77
2023-02-17T06:10:18.000Z,280.84
2023-02-17T06:12:24.000Z,280.77
2023-02-17T06:13:50.000Z,280.77
2023-02-17T06:15:56.000Z,280.9
2023-02-17T06:17:23.000Z,280.96
2023-02-17T06:19:29.000Z,281.02
2023-02-17T06:20:56.000Z,280.96
2023-02-17T06:23:02.000Z,280.96
2023-02-17T06:24:29.000Z,280.96
2023-02-17T06:26:35.000Z,280.96
2023-02-17T06:29:26.000Z,280.96
2023-02-17T06:30:52.000Z,281.02
2023-02-17T06:32:59.000Z,280.96
2023-02-17T06:34:25.000Z,280.96
2023-02-17T06:36:31.000Z,281.09
2023-02-17T06:37:58.000Z,281.09
2023-02-17T06:40:04.000Z,281.21
2023-02-17T06:41:30.000Z,281.21
2023-02-17T06:43:37.000Z,281.21
2023-02-17T06:45:03.000Z,281.15
2023-02-17T06:47:09.000Z,281.27
2023-02-17T06:48:36.000Z,281.27
2023-02-17T06:50:42.000Z,281.34
2023-02-17T06:52:08.000Z,281.34
2023-02-17T06:54:14.000Z,281.27
2023-02-17T06:55:41.000Z,281.34
2023-02-17T06:57:47.000Z,281.4
2023-02-17T06:59:13.000Z,281.4
2023-02-17T07:01:20.000Z,281.4
2023-02-17T07:02:46.000Z,281.46
2023-02-17T07:04:52.000Z,281.46
2023-02-17T07:07:43.000Z,281.46
2023-02-17T07:09:10.000Z,281.52
2023-02-17T07:11:16.000Z,281.4
2023-02-17T07:12:42.000Z,281.46
2023-02-17T07:14:49.000Z,281.46
2023-02-17T07:16:15.000Z,281.52
2023-02-17T07:18:21.000Z,281.46
2023-02-17T07:19:48.000Z,281.52
2023-02-17T07:21:54.000Z,281.59
2023-02-17T07:23:20.000Z,281.52
2023-02-17T07:25:27.000Z,281.52
2023-02-17T07:26:53.000Z,281.59
2023-02-17T07:28:59.000Z,281.65
2023-02-17T07:30:26.000Z,281.65
2023-02-17T07:32:32.000Z,281.65
2023-02-17T07:33:58.000Z,281.65
2023-02-17T07:36:05.000Z,281.59
2023-02-17T07:37:32.000Z,281.65
2023-02-17T07:39:38.000Z,281.59
2023-02-17T07:41:04.000Z,281.65
2023-02-17T07:43:10.000Z,281.71
2023-02-17T07:46:01.000Z,281.71
2023-02-17T07:47:28.000Z,281.71
2023-02-17T07:49:34.000Z,281.77
2023-02-17T07:51:01.000Z,281.84
2023-02-17T07:53:07.000Z,281.84
2023-02-17T07:54:33.000Z,281.84
2023-02-17T07:56:39.000Z,281.84
2023-02-17T07:58:06.000Z,281.84
2023-02-17T08:00:12.000Z,281.84
2023-02-17T08:01:38.000Z,281.84
2023-02-17T08:03:44.000Z,281.84
2023-02-17T08:05:11.000Z,281.84
2023-02-17T08:07:17.000Z,281.9
2023-02-17T08:08:44.000Z,281.9
2023-02-17T08:10:50.000Z,281.96
2023-02-17T08:12:16.000Z,281.9
2023-02-17T08:14:22.000Z,281.96
2023-02-17T08:15:49.000Z,281.9
2023-02-17T08:17:55.000Z,281.9
2023-02-17T08:19:22.000Z,281.9
2023-02-17T08:21:28.000Z,281.9
2023-02-17T08:24:19.000Z,281.96
2023-02-17T08:25:45.000Z,282.02
2023-02-17T08:27:52.000Z,281.96
2023-02-17T08:29:18.000Z,281.96
2023-02-17T08:31:24.000Z,282.02
2023-02-17T08:32:51.000Z,282.02
2023-02-17T08:34:57.000Z,282.09
2023-02-17T08:36:24.000Z,282.02
2023-02-17T08:38:30.000Z,282.09
2023-02-17T08:39:56.000Z,282.15
2023-02-17T08:42:02.000Z,282.09
2023-02-17T08:43:29.000Z,282.09
2023-02-17T08:45:35.000Z,282.15
2023-02-17T08:47:01.000Z,282.15
2023-02-17T08:49:08.000Z,282.15
2023-02-17T08:50:34.000Z,282.15
2023-02-17T08:52:40.000Z,282.21
2023-02-17T08:54:07.000Z,282.21
2023-02-17T08:56:13.000Z,282.21
2023-02-17T08:57:39.000Z,282.21
2023-02-17T08:59:46.000Z,282.27
2023-02-17T09:02:37.000Z,282.27
2023-02-17T09:04:03.000Z,282.27
2023-02-17T09:06:09.000Z,282.21
2023-02-17T09:07:36.000Z,282.27
2023-02-17T09:09:42.000Z,282.27
2023-02-17T09:11:09.000Z,282.34
2023-02-17T09:13:15.000Z,282.34
2023-02-17T09:14:41.000Z,282.27
2023-02-17T09:16:48.000Z,282.27
2023-02-17T09:18:14.000Z,282.34
2023-02-17T09:20:20.000Z,282.34
2023-02-17T09:21:49.000Z,282.27
2023-02-17T09:23:56.000Z,282.34
2023-02-17T09:25:22.000Z,282.4
2023-02-17T09:27:28.000Z,282.4
2023-02-17T09:28:55.000Z,282.4
2023-02-17T09:31:01.000Z,282.46
2023-02-17T09:32:28.000Z,282.46
2023-02-17T09:34:34.000Z,282.46
2023-02-17T09:36:01.000Z,282.52
2023-02-17T09:38:07.000Z,282.52
2023-02-17T09:40:58.000Z,282.65
2023-02-17T09:42:24.000Z,282.65
2023-02-17T09:44:30.000Z,282.71
2023-02-17T09:45:57.000Z,282.77
2023-02-17T09:48:03.000Z,282.77
2023-02-17T09:49:30.000Z,282.84
2023-02-17T09:51:36.000Z,282.9
2023-02-17T09:53:02.000Z,282.9
2023-02-17T09:55:08.000Z,282.96
2023-02-17T09:56:35.000Z,283.02
2023-02-17T09:58:41.000Z,283.09
2023-02-17T10:00:08.000Z,283.09
2023-02-17T10:02:14.000Z,283.09
2023-02-17T10:03:40.000Z,283.02
2023-02-17T10:05:46.000Z,283.02
2023-02-17T10:07:13.000Z,283.02
2023-02-17T10:09:19.000Z,283.02
2023-02-17T10:10:46.000Z,283.02
2023-02-17T10:12:52.000Z,282.96
2023-02-17T10:14:19.000Z,282.9
2023-02-17T10:16:25.000Z,282.9
2023-02-17T10:19:16.000Z,282.84
2023-02-17T10:20:43.000Z,282.84
2023-02-17T10:22:49.000Z,282.77
2023-02-17T10:24:15.000Z,282.77
2023-02-17T10:26:22.000Z,282.77
2023-02-17T10:27:48.000Z,282.77
2023-02-17T10:29:54.000Z,282.77
2023-02-17T10:31:21.000Z,282.77
2023-02-17T10:33:27.000Z,282.77
2023-02-17T10:34:54.000Z,282.77
2023-02-17T10:37:00.000Z,282.77
2023-02-17T10:38:26.000Z,282.77
2023-02-17T10:40:33.000Z,282.77
2023-02-17T10:41:59.000Z,282.77
2023-02-17T10:44:05.000Z,282.77
2023-02-17T10:45:32.000Z,282.77
2023-02-17T10:47:38.000Z,282.77
2023-02-17T10:49:05.000Z,282.84
2023-02-17T10:51:11.000Z,282.84
2023-02-17T10:52:38.000Z,282.84
2023-02-17T10:54:44.000Z,282.9
2023-02-17T10:57:35.000Z,282.9
2023-02-17T10:59:01.000Z,282.9
2023-02-17T11:01:08.000Z,282.96
2023-02-17T11:02:34.000Z,283.02
2023-02-17T11:04:40.000Z,283.09
2023-02-17T11:06:07.000Z,283.15
2023-02-17T11:08:13.000Z,283.21
2023-02-17T11:09:40.000Z,283.27
2023-02-17T11:11:46.000Z,283.34
2023-02-17T11:13:12.000Z,283.4
2023-02-17T11:15:18.000Z,283.4
2023-02-17T11:16:45.000Z,283.46
2023-02-17T11:18:51.000Z,283.52
2023-02-17T11:20:18.000Z,283.59
2023-02-17T11:22:24.000Z,283.65
2023-02-17T11:23:50.000Z,283.65
2023-02-17T11:25:56.000Z,283.71
2023-02-17T11:27:23.000Z,283.77
2023-02-17T11:29:29.000Z,283.84
2023-02-17T11:30:56.000Z,283.84
2023-02-17T11:33:02.000Z,283.84
2023-02-17T11:35:53.000Z,283.77
2023-02-17T11:37:19.000Z,283.84
2023-02-17T11:39:25.000Z,283.84
2023-02-17T11:40:52.000Z,283.84
2023-02-17T11:42:58.000Z,283.84
2023-02-17T11:44:24.000Z,283.84
2023-02-17T11:46:30.000Z,283.9
2023-02-17T11:47:57.000Z,283.9
2023-02-17T11:50:03.000Z,283.9
2023-02-17T11:51:30.000Z,283.96
2023-02-17T11:53:36.000Z,284.02
2023-02-17T11:55:02.000Z,284.02
2023-02-17T11:57:08.000Z,284.09
2023-02-17T11:58:35.000Z,284.02
2023-02-17T12:00:41.000Z,284.02
2023-02-17T12:02:08.000Z,284.02
2023-02-17T12:04:14.000Z,284.02
2023-02-17T12:05:40.000Z,284.09
2023-02-17T12:07:46.000Z,284.09
2023-02-17T12:09:13.000Z,284.09
2023-02-17T12:11:19.000Z,284.15
2023-02-17T12:14:10.000Z,284.15
2023-02-17T12:15:37.000Z,284.15
2023-02-17T12:17:43.000Z,284.15
2023-02-17T12:19:09.000Z,284.21
2023-02-17T12:21:15.000Z,284.34
2023-02-17T12:22:42.000Z,284.27
2023-02-17T12:24:48.000Z,284.27
2023-02-17T12:26:14.000Z,284.21
2023-02-17T12:28:21.000Z,284.21
2023-02-17T12:29:47.000Z,284.27
2023-02-17T12:31:53.000Z,284.15
2023-02-17T12:33:20.000Z,284.21
2023-02-17T12:35:26.000Z,284.15
2023-02-17T12:36:53.000Z,284.21
2023-02-17T12:38:59.000Z,284.34
2023-02-17T12:40:25.000Z,284.34
2023-02-17T12:42:32.000Z,284.4
2023-02-17T12:43:58.000Z,284.46
2023-02-17T12:46:04.000Z,284.52
2023-02-17T12:47:31.000Z,284.71
2023-02-17T12:49:37.000Z,284.77
2023-02-17T12:52:28.000Z,284.71
2023-02-17T12:53:55.000Z,284.77
2023-02-17T12:56:01.000Z,284.77
2023-02-17T12:57:28.000Z,284.71
2023-02-17T12:59:34.000Z,284.71
2023-02-17T13:01:00.000Z,284.65
2023-02-17T13:03:09.000Z,284.71
2023-02-17T13:04:36.000Z,284.71
2023-02-17T13:06:42.000Z,284.71
2023-02-17T13:08:08.000Z,284.71
2023-02-17T13:10:14.000Z,284.65
2023-02-17T13:11:41.000Z,284.65
2023-02-17T13:13:47.000Z,284.59
2023-02-17T13:15:13.000Z,284.65
2023-02-17T13:17:19.000Z,284.65
2023-02-17T13:18:46.000Z,284.65
2023-02-17T13:20:54.000Z,284.71
2023-02-17T13:22:20.000Z,284.71
2023-02-17T13:24:27.000Z,284.71
2023-02-17T13:25:53.000Z,284.77
2023-02-17T13:27:59.000Z,284.77
2023-02-17T13:30:50.000Z,284.84
2023-02-17T13:32:17.000Z,284.84
2023-02-17T13:34:23.000Z,284.84
2023-02-17T13:35:50.000Z,284.84
2023-02-17T13:37:56.000Z,284.84
2023-02-17T13:39:22.000Z,284.84
2023-02-17T13:41:28.000Z,284.84
2023-02-17T13:42:55.000Z,284.9
2023-02-17T13:45:01.000Z,284.9
2023-02-17T13:46:28.000Z,284.9
2023-02-17T13:48:34.000Z,284.96
2023-02-17T13:50:00.000Z,284.96
2023-02-17T13:52:06.000Z,284.96
2023-02-17T13:53:33.000Z,285.02
2023-02-17T13:55:41.000Z,285.02
2023-02-17T13:57:08.000Z,285.09
2023-02-17T13:59:14.000Z,285.15
2023-02-17T14:00:41.000Z,285.21
2023-02-17T14:02:47.000Z,285.27
2023-02-17T14:04:13.000Z,285.34
2023-02-17T14:06:20.000Z,285.46
2023-02-17T14:09:11.000Z,285.46
2023-02-17T14:10:37.000Z,285.59
2023-02-17T14:12:43.000Z,285.65
2023-02-17T14:14:10.000Z,285.65
2023-02-17T14:16:16.000Z,285.71
2023-02-17T14:17:43.000Z,285.65
2023-02-17T14:19:49.000Z,285.65
2023-02-17T14:21:15.000Z,285.71
2023-02-17T14:23:21.000Z,285.71
2023-02-17T14:24:48.000Z,285.71
2023-02-17T14:26:54.000Z,285.71
2023-02-17T14:28:21.000Z,285.71
2023-02-17T14:30:27.000Z,285.71
2023-02-17T14:31:53.000Z,285.77
2023-02-17T14:34:00.000Z,285.71
2023-02-17T14:35:26.000Z,285.65
2023-02-17T14:37:32.000Z,285.65
2023-02-17T14:38:59.000Z,285.59
2023-02-17T14:41:05.000Z,285.52
2023-02-17T14:42:32.000Z,285.52
2023-02-17T14:44:38.000Z,285.46
2023-02-17T14:47:30.000Z,285.4
2023-02-17T14:48:56.000Z,285.4
2023-02-17T14:51:03.000Z,285.34
2023-02-17T14:52:29.000Z,285.34
2023-02-17T14:54:35.000Z,285.27
2023-02-17T14:56:02.000Z,285.27
2023-02-17T14:58:08.000Z,285.21
2023-02-17T14:59:35.000Z,285.21
2023-02-17T15:01:41.000Z,285.21
2023-02-17T15:03:08.000Z,285.21
2023-02-17T15:05:14.000Z,285.21
2023-02-17T15:06:40.000Z,285.21
2023-02-17T15:08:46.000Z,285.21
2023-02-17T15:10:13.000Z,285.21
2023-02-17T15:12:19.000Z,285.21
2023-02-17T15:13:46.000Z,285.27
2023-02-17T15:15:52.000Z,285.21
2023-02-17T15:17:18.000Z,285.21
2023-02-17T15:19:24.000Z,285.21
2023-02-17T15:20:51.000Z,285.15
2023-02-17T15:22:57.000Z,285.09
2023-02-17T15:25:48.000Z,285.09
2023-02-17T15:27:14.000Z,285.09
2023-02-17T15:29:20.000Z,285.09
2023-02-17T15:30:47.000Z,285.09
2023-02-17T15:32:53.000Z,285.09
2023-02-17T15:34:20.000Z,285.09
2023-02-17T15:36:26.000Z,285.09
2023-02-17T15:37:52.000Z,285.09
2023-02-17T15:39:59.000Z,285.09
2023-02-17T15:41:25.000Z,285.09
2023-02-17T15:45:01.000Z,285.09
2023-02-17T15:47:07.000Z,285.02
2023-02-17T15:48:33.000Z,285.09
2023-02-17T15:50:40.000Z,285.09
2023-02-17T15:52:06.000Z,285.09
2023-02-17T15:54:12.000Z,285.09
2023-02-17T15:55:39.000Z,285.02
2023-02-17T15:57:45.000Z,285.02
2023-02-17T15:59:11.000Z,285.02
2023-02-17T16:01:18.000Z,285.02
2023-02-17T16:04:09.000Z,285.02
2023-02-17T16:05:35.000Z,285.09
2023-02-17T16:07:41.000Z,285.09
2023-02-17T16:09:08.000Z,285.09
2023-02-17T16:11:14.000Z,285.09
2023-02-17T16:12:41.000Z,285.02
2023-02-17T16:14:47.000Z,285.02
2023-02-17T16:16:13.000Z,285.02
2023-02-17T16:18:19.000Z,284.96
2023-02-17T16:19:46.000Z,284.96
2023-02-17T16:21:52.000Z,285.02
2023-02-17T16:23:18.000Z,285.02
2023-02-17T16:25:25.000Z,284.96
2023-02-17T16:26:51.000Z,284.96
2023-02-17T16:28:57.000Z,284.96
2023-02-17T16:30:24.000Z,284.96
2023-02-17T16:32:30.000Z,284.96
2023-02-17T16:33:59.000Z,284.96
2023-02-17T16:36:05.000Z,284.96
2023-02-17T16:37:32.000Z,284.96
2023-02-17T16:39:38.000Z,284.9
2023-02-17T16:42:30.000Z,284.84
2023-02-17T16:43:56.000Z,284.84
2023-02-17T16:46:02.000Z,284.84
2023-02-17T16:47:29.000Z,284.9
2023-02-17T16:49:35.000Z,284.9
2023-02-17T16:51:02.000Z,284.84
2023-02-17T16:53:08.000Z,284.9
2023-02-17T16:54:34.000Z,284.84
2023-02-17T16:56:40.000Z,284.84
2023-02-17T16:58:07.000Z,284.96
2023-02-17T17:00:13.000Z,284.9
2023-02-17T17:01:40.000Z,284.9
2023-02-17T17:03:46.000Z,284.9
2023-02-17T17:05:12.000Z,284.9
2023-02-17T17:07:18.000Z,284.96
2023-02-17T17:08:45.000Z,284.96
2023-02-17T17:10:51.000Z,284.96
2023-02-17T17:12:18.000Z,284.96
2023-02-17T17:14:24.000Z,284.9
2023-02-17T17:15:50.000Z,284.96
2023-02-17T17:17:56.000Z,284.9
2023-02-17T17:20:47.000Z,284.9
2023-02-17T17:22:14.000Z,284.9
2023-02-17T17:24:20.000Z,284.9
2023-02-17T17:25:47.000Z,284.9
2023-02-17T17:27:53.000Z,284.96
2023-02-17T17:29:19.000Z,284.9
2023-02-17T17:31:25.000Z,284.9
2023-02-17T17:32:52.000Z,284.84
2023-02-17T17:34:58.000Z,284.77
2023-02-17T17:36:25.000Z,284.77
2023-02-17T17:38:31.000Z,284.77
2023-02-17T17:39:57.000Z,284.71
2023-02-17T17:42:03.000Z,284.71
2023-02-17T17:43:30.000Z,284.71
2023-02-17T17:45:36.000Z,284.65
2023-02-17T17:47:02.000Z,284.71
2023-02-17T17:49:09.000Z,284.65
2023-02-17T17:50:35.000Z,284.65
2023-02-17T17:52:41.000Z,284.59
2023-02-17T17:54:08.000Z,284.59
2023-02-17T17:56:14.000Z,284.65
2023-02-17T17:59:05.000Z,284.65
2023-02-17T18:00:32.000Z,284.59
2023-02-17T18:02:38.000Z,284.59
2023-02-17T18:04:04.000Z,284.59
2023-02-17T18:06:10.000Z,284.52
2023-02-17T18:07:37.000Z,284.52
2023-02-17T18:09:43.000Z,284.46
2023-02-17T18:11:09.000Z,284.4
2023-02-17T18:13:15.000Z,284.4
2023-02-17T18:14:42.000Z,284.4
2023-02-17T18:16:48.000Z,284.34
2023-02-17T18:18:14.000Z,284.27
2023-02-17T18:20:20.000Z,284.21
2023-02-17T18:21:47.000Z,284.21
2023-02-17T18:23:53.000Z,284.15
2023-02-17T18:25:20.000Z,284.15
2023-02-17T18:27:26.000Z,284.09
2023-02-17T18:28:52.000Z,284.09
2023-02-17T18:30:58.000Z,284.09
2023-02-17T18:32:25.000Z,284.09
2023-02-17T18:34:31.000Z,284.09
2023-02-17T18:37:23.000Z,284.09
2023-02-17T18:38:49.000Z,284.02
2023-02-17T18:40:55.000Z,284.09
2023-02-17T18:42:22.000Z,284.09
2023-02-17T18:44:28.000Z,284.02
2023-02-17T18:45:54.000Z,284.02
2023-02-17T18:48:01.000Z,284.09
2023-02-17T18:49:27.000Z,284.02
2023-02-17T18:51:33.000Z,284.02
2023-02-17T18:53:00.000Z,284.02
2023-02-17T18:55:09.000Z,284.02
2023-02-17T18:56:35.000Z,284.02
2023-02-17T18:58:42.000Z,284.02
2023-02-17T19:00:08.000Z,284.02
2023-02-17T19:02:14.000Z,284.02
2023-02-17T19:03:41.000Z,284.02
2023-02-17T19:05:47.000Z,283.96
2023-02-17T19:07:13.000Z,283.96
2023-02-17T19:09:19.000Z,283.9
2023-02-17T19:10:46.000Z,283.9
2023-02-17T19:12:52.000Z,283.9
2023-02-17T19:15:43.000Z,283.77
2023-02-17T19:17:10.000Z,283.71
2023-02-17T19:19:16.000Z,283.59
2023-02-17T19:20:42.000Z,283.59
2023-02-17T19:22:48.000Z,283.52
2023-02-17T19:24:15.000Z,283.52
2023-02-17T19:26:21.000Z,283.52
2023-02-17T19:27:47.000Z,283.4
2023-02-17T19:29:54.000Z,283.46
2023-02-17T19:31:20.000Z,283.4
2023-02-17T19:33:26.000Z,283.4
2023-02-17T19:34:53.000Z,283.4
2023-02-17T19:36:59.000Z,283.34
2023-02-17T19:38:26.000Z,283.27
2023-02-17T19:40:32.000Z,283.34
2023-02-17T19:41:58.000Z,283.34
2023-02-17T19:44:04.000Z,283.27
2023-02-17T19:45:31.000Z,283.27
2023-02-17T19:47:37.000Z,283.27
2023-02-17T19:49:03.000Z,283.34
2023-02-17T19:51:10.000Z,283.34
2023-02-17T19:54:01.000Z,283.34
2023-02-17T19:55:27.000Z,283.34
2023-02-17T19:57:33.000Z,283.34
2023-02-17T19:59:00.000Z,283.34
2023-02-17T20:01:06.000Z,283.4
2023-02-17T20:02:32.000Z,283.34
2023-02-17T20:04:39.000Z,283.46
2023-02-17T20:06:05.000Z,283.46
2023-02-17T20:08:12.000Z,283.4
2023-02-17T20:09:38.000Z,283.4
2023-02-17T20:11:45.000Z,283.4
2023-02-17T20:13:11.000Z,283.4
2023-02-17T20:15:17.000Z,283.4
2023-02-17T20:16:44.000Z,283.34
2023-02-17T20:18:50.000Z,283.4
2023-02-17T20:20:16.000Z,283.4
2023-02-17T20:22:23.000Z,283.4
2023-02-17T20:23:49.000Z,283.34
2023-02-17T20:25:55.000Z,283.4
2023-02-17T20:27:22.000Z,283.4
2023-02-17T20:29:29.000Z,283.4
2023-02-17T20:32:20.000Z,283.34
2023-02-17T20:33:46.000Z,283.34
2023-02-17T20:35:53.000Z,283.34
2023-02-17T20:37:19.000Z,283.34
2023-02-17T20:39:25.000Z,283.27
2023-02-17T20:40:52.000Z,283.27
2023-02-17T20:42:58.000Z,283.21
2023-02-17T20:44:24.000Z,283.21
2023-02-17T20:46:32.000Z,283.15
2023-02-17T20:47:58.000Z,283.15
2023-02-17T20:50:04.000Z,283.15
2023-02-17T20:51:31.000Z,283.15
2023-02-17T20:53:37.000Z,283.09
2023-02-17T20:55:04.000Z,283.15
2023-02-17T20:57:10.000Z,283.15
2023-02-17T20:58:36.000Z,283.15
2023-02-17T21:00:42.000Z,283.21
2023-02-17T21:02:09.000Z,283.15
2023-02-17T21:04:15.000Z,283.15
2023-02-17T21:05:41.000Z,283.15
2023-02-17T21:07:48.000Z,283.15
2023-02-17T21:10:39.000Z,283.15
2023-02-17T21:12:05.000Z,283.15
2023-02-17T21:14:11.000Z,283.15
2023-02-17T21:15:38.000Z,283.09
2023-02-17T21:17:44.000Z,283.09
2023-02-17T21:19:10.000Z,283.09
2023-02-17T21:21:16.000Z,283.15
2023-02-17T21:22:43.000Z,283.15
2023-02-17T21:24:49.000Z,283.09
2023-02-17T21:26:16.000Z,283.09
2023-02-17T21:28:22.000Z,283.09
2023-02-17T21:29:48.000Z,283.09
2023-02-17T21:31:54.000Z,283.09
2023-02-17T21:33:21.000Z,283.09
2023-02-17T21:35:27.000Z,283.09
2023-02-17T21:36:54.000Z,283.09
2023-02-17T21:39:00.000Z,283.02
2023-02-17T21:40:26.000Z,283.02
2023-02-17T21:42:33.000Z,282.96
2023-02-17T21:43:59.000Z,282.96
2023-02-17T21:46:05.000Z,282.9
2023-02-17T21:48:57.000Z,282.9
2023-02-17T21:50:23.000Z,282.9
2023-02-17T21:52:29.000Z,282.9
2023-02-17T21:53:56.000Z,282.96
2023-02-17T21:56:02.000Z,282.96
2023-02-17T21:57:29.000Z,282.96
2023-02-17T21:59:35.000Z,282.9
2023-02-17T22:01:02.000Z,282.96
2023-02-17T22:03:08.000Z,282.96
2023-02-17T22:04:34.000Z,282.96
2023-02-17T22:06:40.000Z,282.96
2023-02-17T22:08:07.000Z,282.96
2023-02-17T22:10:13.000Z,282.9
2023-02-17T22:11:40.000Z,282.9
2023-02-17T22:13:46.000Z,282.9
2023-02-17T22:15:12.000Z,282.9
2023-02-17T22:17:18.000Z,282.9
2023-02-17T22:18:45.000Z,282.84
2023-02-17T22:20:51.000Z,282.84
2023-02-17T22:22:18.000Z,282.84
2023-02-17T22:24:24.000Z,282.84
2023-02-17T22:27:15.000Z,282.77
2023-02-17T22:28:41.000Z,282.84
2023-02-17T22:30:47.000Z,282.77
2023-02-17T22:32:14.000Z,282.77
2023-02-17T22:34:20.000Z,282.84
2023-02-17T22:35:47.000Z,282.84
2023-02-17T22:37:53.000Z,282.84
2023-02-17T22:39:19.000Z,282.84
2023-02-17T22:41:25.000Z,282.71
2023-02-17T22:42:52.000Z,282.84
2023-02-17T22:44:58.000Z,282.84
2023-02-17T22:46:25.000Z,282.84
2023-02-17T22:48:31.000Z,282.84
2023-02-17T22:49:58.000Z,282.77
2023-02-17T22:52:04.000Z,282.77